createdAt,value
2023-04-29T00:01:50.586Z,19.63
2023-04-29T00:04:19.591Z,16.67
2023-04-29T00:06:49.271Z,17.60
2023-04-29T00:09:17.407Z,14.93
2023-04-29T00:11:47.120Z,15.10
2023-04-29T00:14:15.640Z,15.30
2023-04-29T00:16:43.896Z,16.13
2023-04-29T00:19:12.229Z,16.33
2023-04-29T00:21:40.405Z,15.53
2023-04-29T00:24:10.078Z,16.10
2023-04-29T00:26:38.454Z,18.40
2023-04-29T00:29:06.640Z,19.73
2023-04-29T00:31:35.053Z,20.27
2023-04-29T00:34:03.308Z,23.50
2023-04-29T00:36:32.335Z,23.57
2023-04-29T00:39:00.498Z,23.87
2023-04-29T00:41:30.031Z,24.27
2023-04-29T00:43:58.293Z,24.73
2023-04-29T00:46:26.508Z,24.63
2023-04-29T00:48:54.704Z,25.87
2023-04-29T00:51:22.950Z,23.13
2023-04-29T00:53:51.163Z,25.20
2023-04-29T00:56:20.889Z,31.73
2023-04-29T00:58:51.815Z,23.13
2023-04-29T01:01:21.694Z,25.30
2023-04-29T01:03:50.873Z,28.17
2023-04-29T01:06:25.968Z,30.70
2023-04-29T01:08:55.986Z,26.47
2023-04-29T01:11:25.975Z,28.93
2023-04-29T01:13:57.882Z,27.77
2023-04-29T01:16:27.476Z,28.30
2023-04-29T01:18:56.674Z,30.20
2023-04-29T01:21:26.258Z,28.20
2023-04-29T01:23:57.104Z,29.13
2023-04-29T01:26:25.393Z,30.23
2023-04-29T01:28:56.783Z,30.30
2023-04-29T01:31:27.199Z,28.77
2023-04-29T01:33:59.658Z,30.20
2023-04-29T01:36:33.509Z,29.33
2023-04-29T01:39:09.125Z,31.97
2023-04-29T01:41:40.145Z,29.47
2023-04-29T01:44:09.937Z,33.00
2023-04-29T01:46:38.168Z,34.23
2023-04-29T01:49:06.887Z,35.33
2023-04-29T01:51:35.300Z,33.60
2023-04-29T01:54:05.732Z,30.33
2023-04-29T01:56:33.931Z,33.83
2023-04-29T01:59:02.103Z,32.57
2023-04-29T02:01:30.293Z,32.67
2023-04-29T02:03:58.886Z,32.50
2023-04-29T02:06:28.023Z,32.33
2023-04-29T02:08:56.510Z,29.10
2023-04-29T02:11:26.073Z,32.27
2023-04-29T02:13:54.700Z,28.63
2023-04-29T02:16:22.956Z,29.93
2023-04-29T02:18:51.362Z,31.27
2023-04-29T02:21:19.534Z,27.57
2023-04-29T02:23:47.676Z,29.57
2023-04-29T02:26:15.849Z,29.30
2023-04-29T02:28:45.353Z,32.00
2023-04-29T02:31:13.682Z,29.47
2023-04-29T02:33:42.121Z,29.77
2023-04-29T02:36:11.351Z,29.50
2023-04-29T02:38:39.526Z,32.93
2023-04-29T02:41:08.065Z,35.57
2023-04-29T02:43:36.281Z,40.77
2023-04-29T02:46:05.855Z,39.77
2023-04-29T02:48:34.051Z,37.67
2023-04-29T02:51:02.230Z,39.43
2023-04-29T02:53:30.400Z,41.03
2023-04-29T02:55:58.576Z,44.47
2023-04-29T02:58:26.909Z,39.23
2023-04-29T03:00:55.104Z,36.43
2023-04-29T03:03:24.685Z,38.70
2023-04-29T03:05:52.954Z,38.67
2023-04-29T03:08:21.124Z,42.93
2023-04-29T03:10:49.284Z,45.13
2023-04-29T03:13:17.605Z,41.80
2023-04-29T03:15:45.747Z,43.70
2023-04-29T03:18:14.041Z,44.43
2023-04-29T03:20:43.595Z,42.97
2023-04-29T03:23:11.833Z,42.03
2023-04-29T03:25:40.678Z,37.33
2023-04-29T03:28:08.911Z,39.20
2023-04-29T03:30:37.621Z,39.93
2023-04-29T03:33:05.896Z,36.60
2023-04-29T03:35:34.092Z,43.10
2023-04-29T03:38:03.938Z,36.23
2023-04-29T03:40:32.115Z,36.40
2023-04-29T03:43:00.800Z,35.43
2023-04-29T03:45:28.953Z,44.63
2023-04-29T03:47:57.317Z,42.30
2023-04-29T03:50:26.009Z,38.80
2023-04-29T03:52:54.197Z,41.00
2023-04-29T03:55:23.680Z,38.03
2023-04-29T03:57:51.843Z,44.70
2023-04-29T04:00:20.091Z,47.77
2023-04-29T04:02:48.473Z,47.90
2023-04-29T04:05:19.357Z,50.37
2023-04-29T04:07:47.499Z,51.60
2023-04-29T04:10:15.667Z,53.57
2023-04-29T04:12:45.569Z,58.33
2023-04-29T04:15:13.731Z,66.67
2023-04-29T04:17:41.939Z,63.67
2023-04-29T04:20:10.632Z,72.60
2023-04-29T04:22:39.031Z,65.37
2023-04-29T04:25:08.357Z,76.30
2023-04-29T04:27:36.678Z,77.47
2023-04-29T04:30:06.631Z,80.90
2023-04-29T04:32:34.841Z,78.70
2023-04-29T04:35:03.068Z,81.33
2023-04-29T04:37:31.453Z,74.33
2023-04-29T04:39:59.598Z,71.83
2023-04-29T04:42:27.742Z,77.33
2023-04-29T04:44:55.933Z,79.33
2023-04-29T04:47:25.472Z,81.27
2023-04-29T04:49:53.876Z,83.83
2023-04-29T04:52:22.684Z,81.37
2023-04-29T04:54:50.850Z,86.80
2023-04-29T04:57:19.028Z,82.33
2023-04-29T04:59:47.228Z,80.57
2023-04-29T05:02:15.438Z,79.47
2023-04-29T05:04:44.974Z,71.70
2023-04-29T05:07:13.114Z,64.37
2023-04-29T05:09:41.251Z,67.13
2023-04-29T05:12:09.421Z,59.20
2023-04-29T05:14:37.586Z,56.17
2023-04-29T05:17:05.791Z,54.30
2023-04-29T05:19:33.960Z,48.63
2023-04-29T05:22:03.452Z,52.53
2023-04-29T05:24:31.648Z,51.67
2023-04-29T05:26:59.793Z,47.83
2023-04-29T05:29:28.157Z,48.63
2023-04-29T05:31:56.335Z,49.50
2023-04-29T05:34:24.481Z,49.23
2023-04-29T05:36:52.821Z,53.23
2023-04-29T05:39:22.848Z,46.97
2023-04-29T05:41:51.027Z,48.17
2023-04-29T05:44:19.197Z,42.30
2023-04-29T05:46:48.713Z,40.87
2023-04-29T05:49:16.954Z,40.57
2023-04-29T05:51:45.288Z,35.23
2023-04-29T05:54:13.645Z,38.07
2023-04-29T05:56:43.185Z,36.53
2023-04-29T05:59:11.350Z,35.73
2023-04-29T06:01:39.526Z,33.80
2023-04-29T06:04:08.298Z,37.90
2023-04-29T06:06:36.799Z,29.97
2023-04-29T06:09:08.598Z,25.73
2023-04-29T06:11:44.268Z,27.87
2023-04-29T06:14:12.649Z,29.50
2023-04-29T06:16:41.279Z,27.43
2023-04-29T06:19:09.512Z,25.23
2023-04-29T06:21:37.696Z,21.87
2023-04-29T06:24:05.997Z,25.37
2023-04-29T06:26:34.177Z,25.23
2023-04-29T06:29:03.662Z,24.83
2023-04-29T06:31:31.861Z,26.50
2023-04-29T06:34:00.144Z,24.43
2023-04-29T06:36:28.387Z,28.97
2023-04-29T06:38:56.641Z,30.80
2023-04-29T06:41:25.065Z,23.53
2023-04-29T06:43:53.261Z,29.60
2023-04-29T06:46:22.812Z,29.97
2023-04-29T06:48:50.980Z,28.27
2023-04-29T06:51:19.151Z,32.73
2023-04-29T06:53:48.210Z,25.20
2023-04-29T06:56:17.211Z,30.87
2023-04-29T06:58:45.491Z,26.40
2023-04-29T07:01:13.818Z,30.10
2023-04-29T07:03:43.747Z,26.77
2023-04-29T07:06:12.615Z,28.93
2023-04-29T07:08:40.799Z,30.50
2023-04-29T07:11:08.994Z,29.73
2023-04-29T07:13:37.178Z,28.17
2023-04-29T07:16:05.607Z,29.23
2023-04-29T07:18:33.760Z,24.73
2023-04-29T07:21:04.166Z,21.63
2023-04-29T07:23:32.322Z,23.97
2023-04-29T07:26:00.470Z,23.30
2023-04-29T07:28:28.642Z,22.60
2023-04-29T07:30:56.894Z,21.03
2023-04-29T07:33:25.071Z,21.53
2023-04-29T07:35:53.236Z,19.27
2023-04-29T07:38:22.736Z,19.13
2023-04-29T07:40:50.898Z,18.93
2023-04-29T07:43:19.112Z,22.30
2023-04-29T07:45:47.375Z,17.93
2023-04-29T07:48:15.729Z,19.73
2023-04-29T07:50:44.205Z,16.57
2023-04-29T07:53:12.355Z,16.50
2023-04-29T07:55:41.855Z,13.10
2023-04-29T07:58:10.030Z,15.17
2023-04-29T08:00:38.821Z,13.87
2023-04-29T08:03:07.125Z,18.03
2023-04-29T08:05:35.768Z,16.43
2023-04-29T08:08:04.085Z,16.60
2023-04-29T08:10:32.304Z,18.53
2023-04-29T08:13:01.812Z,17.47
2023-04-29T08:15:29.994Z,17.00
2023-04-29T08:17:58.188Z,16.50
2023-04-29T08:20:26.346Z,16.57
2023-04-29T08:22:54.600Z,12.70
2023-04-29T08:25:22.746Z,13.37
2023-04-29T08:27:50.919Z,9.60
2023-04-29T08:30:20.989Z,10.50
2023-04-29T08:32:49.357Z,9.87
2023-04-29T08:35:17.552Z,11.57
2023-04-29T08:37:45.771Z,10.87
2023-04-29T08:40:15.070Z,17.10
2023-04-29T08:42:47.364Z,13.60
2023-04-29T08:45:17.908Z,11.70
2023-04-29T08:47:49.542Z,11.90
2023-04-29T08:50:18.132Z,12.37
2023-04-29T08:52:46.283Z,15.90
2023-04-29T08:55:14.463Z,19.07
2023-04-29T08:57:43.463Z,17.00
2023-04-29T09:00:12.122Z,16.83
2023-04-29T09:02:41.981Z,17.77
2023-04-29T09:05:12.132Z,17.77
2023-04-29T09:07:40.761Z,17.77
2023-04-29T09:10:09.526Z,17.70
2023-04-29T09:12:37.701Z,16.47
2023-04-29T09:15:06.184Z,16.33
2023-04-29T09:17:44.271Z,19.17
2023-04-29T09:20:29.087Z,17.40
2023-04-29T09:22:58.001Z,19.23
2023-04-29T09:25:27.156Z,14.77
2023-04-29T09:27:55.671Z,17.53
2023-04-29T09:30:23.987Z,16.00
2023-04-29T09:33:10.129Z,15.50
2023-04-29T09:35:42.444Z,14.10
2023-04-29T09:38:11.821Z,14.83
2023-04-29T09:40:54.475Z,15.40
2023-04-29T09:43:27.012Z,13.87
2023-04-29T09:45:55.616Z,13.13
2023-04-29T09:48:23.917Z,13.67
2023-04-29T09:51:03.888Z,16.20
2023-04-29T09:53:32.701Z,13.40
2023-04-29T09:56:02.094Z,14.97
2023-04-29T09:58:34.308Z,14.07
2023-04-29T10:01:03.126Z,14.47
2023-04-29T10:03:33.805Z,14.23
2023-04-29T10:06:04.474Z,19.83
2023-04-29T10:08:33.471Z,16.33
2023-04-29T10:11:02.349Z,12.97
2023-04-29T10:13:30.889Z,14.67
2023-04-29T10:16:02.906Z,13.43
2023-04-29T10:18:33.482Z,14.07
2023-04-29T10:21:02.898Z,16.37
2023-04-29T10:23:32.857Z,12.97
2023-04-29T10:26:01.712Z,16.67
2023-04-29T10:28:32.664Z,13.77
2023-04-29T10:31:03.144Z,15.67
2023-04-29T10:33:33.836Z,16.77
2023-04-29T10:36:02.761Z,17.00
2023-04-29T10:38:32.272Z,14.53
2023-04-29T10:41:04.761Z,14.23
2023-04-29T10:43:32.976Z,14.53
2023-04-29T10:46:20.085Z,15.67
2023-04-29T10:48:48.647Z,11.07
2023-04-29T10:51:31.321Z,13.63
2023-04-29T10:54:03.411Z,9.80
2023-04-29T10:56:40.243Z,11.33
2023-04-29T10:59:11.277Z,9.67
2023-04-29T11:01:43.640Z,11.10
2023-04-29T11:04:12.538Z,9.97
2023-04-29T11:06:42.095Z,10.67
2023-04-29T11:09:11.864Z,10.10
2023-04-29T11:11:45.444Z,9.27
2023-04-29T11:14:14.762Z,10.20
2023-04-29T11:16:50.199Z,12.67
2023-04-29T11:19:19.087Z,13.00
2023-04-29T11:21:47.851Z,14.27
2023-04-29T11:24:19.162Z,13.53
2023-04-29T11:26:49.019Z,10.77
2023-04-29T11:29:17.465Z,12.70
2023-04-29T11:31:45.696Z,12.20
2023-04-29T11:34:13.947Z,14.93
2023-04-29T11:36:42.123Z,13.00
2023-04-29T11:39:10.322Z,13.00
2023-04-29T11:41:39.846Z,13.97
2023-04-29T11:44:10.061Z,13.77
2023-04-29T11:46:38.342Z,13.43
2023-04-29T11:49:06.645Z,13.53
2023-04-29T11:51:34.799Z,18.57
2023-04-29T11:54:02.950Z,13.00
2023-04-29T11:56:31.946Z,14.60
2023-04-29T11:59:01.897Z,14.03
2023-04-29T12:01:31.580Z,14.67
2023-04-29T12:04:00.942Z,14.33
2023-04-29T12:06:30.365Z,13.53
2023-04-29T12:09:01.136Z,13.80
2023-04-29T12:11:29.430Z,15.00
2023-04-29T12:13:58.054Z,14.37
2023-04-29T12:16:29.320Z,15.37
2023-04-29T12:18:59.609Z,14.10
2023-04-29T12:21:28.462Z,14.13
2023-04-29T12:24:00.393Z,14.07
2023-04-29T12:26:30.198Z,13.63
2023-04-29T12:28:58.999Z,14.50
2023-04-29T12:31:36.423Z,14.80
2023-04-29T12:34:09.083Z,13.67
2023-04-29T12:36:38.127Z,14.87
2023-04-29T12:39:10.130Z,12.70
2023-04-29T12:41:38.767Z,15.53
2023-04-29T12:44:07.946Z,15.03
2023-04-29T12:46:36.938Z,17.47
2023-04-29T12:49:06.802Z,19.10
2023-04-29T12:51:35.745Z,20.87
2023-04-29T12:54:04.643Z,19.07
2023-04-29T12:56:32.894Z,20.43
2023-04-29T12:59:07.247Z,18.67
2023-04-29T13:01:35.483Z,20.47
2023-04-29T13:04:05.041Z,19.83
2023-04-29T13:06:34.758Z,20.10
2023-04-29T13:09:03.197Z,20.00
2023-04-29T13:11:34.263Z,19.47
2023-04-29T13:14:03.038Z,20.23
2023-04-29T13:16:31.201Z,20.20
2023-04-29T13:19:17.021Z,19.43
2023-04-29T13:21:49.047Z,17.27
2023-04-29T13:24:18.308Z,18.17
2023-04-29T13:26:49.109Z,17.97
2023-04-29T13:29:19.166Z,18.73
2023-04-29T13:31:47.727Z,20.57
2023-04-29T13:34:16.014Z,18.30
2023-04-29T13:36:44.304Z,20.27
2023-04-29T13:39:14.938Z,22.33
2023-04-29T13:41:45.859Z,18.93
2023-04-29T13:44:27.200Z,19.43
2023-04-29T13:47:01.987Z,19.50
2023-04-29T13:50:03.333Z,28.53
2023-04-29T13:55:14.855Z,17.23
2023-04-29T13:58:31.200Z,18.23
2023-04-29T14:01:01.370Z,18.47
2023-04-29T14:03:15.386Z,17.00
2023-04-29T14:05:43.835Z,18.27
2023-04-29T14:08:12.210Z,19.63
2023-04-29T14:10:41.736Z,18.97
2023-04-29T14:13:09.939Z,21.10
2023-04-29T14:15:38.117Z,19.50
2023-04-29T14:18:08.117Z,20.30
2023-04-29T14:20:36.421Z,19.97
2023-04-29T14:23:04.568Z,19.07
2023-04-29T14:25:33.893Z,18.73
2023-04-29T14:28:03.932Z,20.07
2023-04-29T14:30:32.121Z,19.33
2023-04-29T14:33:00.323Z,20.07
2023-04-29T14:35:28.499Z,17.30
2023-04-29T14:37:56.621Z,18.10
2023-04-29T14:40:24.773Z,21.07
2023-04-29T14:42:52.940Z,19.47
2023-04-29T14:45:22.577Z,21.20
2023-04-29T14:47:50.765Z,21.63
2023-04-29T14:50:19.355Z,19.53
2023-04-29T14:52:47.542Z,18.77
2023-04-29T14:55:15.841Z,19.60
2023-04-29T14:57:44.041Z,20.27
2023-04-29T15:00:12.793Z,17.20
2023-04-29T15:02:42.302Z,17.43
2023-04-29T15:05:10.758Z,16.47
2023-04-29T15:07:38.983Z,14.27
2023-04-29T15:10:09.341Z,15.77
2023-04-29T15:12:37.493Z,14.97
2023-04-29T15:15:05.972Z,18.50
2023-04-29T15:17:34.167Z,18.20
2023-04-29T15:20:04.105Z,17.07
2023-04-29T15:22:32.250Z,14.57
2023-04-29T15:25:00.944Z,14.07
2023-04-29T15:27:29.607Z,15.00
2023-04-29T15:29:57.783Z,16.40
2023-04-29T15:32:31.317Z,16.30
2023-04-29T15:35:00.339Z,15.57
2023-04-29T15:37:30.646Z,15.60
2023-04-29T15:40:00.390Z,16.47
2023-04-29T15:42:28.647Z,14.70
2023-04-29T15:44:56.812Z,14.93
2023-04-29T15:47:25.007Z,16.63
2023-04-29T15:49:53.304Z,14.87
2023-04-29T15:52:21.527Z,15.80
2023-04-29T15:54:51.669Z,16.10
2023-04-29T15:57:19.848Z,14.53
2023-04-29T15:59:48.029Z,14.87
2023-04-29T16:02:16.594Z,15.00
2023-04-29T16:04:44.754Z,16.83
2023-04-29T16:07:13.325Z,16.57
2023-04-29T16:09:41.542Z,15.33
2023-04-29T16:12:13.038Z,14.17
2023-04-29T16:14:41.237Z,17.73
2023-04-29T16:17:09.467Z,17.60
2023-04-29T16:19:37.628Z,20.17
2023-04-29T16:22:05.982Z,15.40
2023-04-29T16:24:34.534Z,16.93
2023-04-29T16:27:02.839Z,17.60
2023-04-29T16:29:32.372Z,18.33
2023-04-29T16:32:00.754Z,15.40
2023-04-29T16:34:28.939Z,19.83
2023-04-29T16:36:57.244Z,18.90
2023-04-29T16:39:25.742Z,18.40
2023-04-29T16:41:53.904Z,17.60
2023-04-29T16:44:22.056Z,17.93
2023-04-29T16:46:51.611Z,16.00
2023-04-29T16:49:23.218Z,17.97
2023-04-29T16:51:51.389Z,16.47
2023-04-29T16:54:19.568Z,19.40
2023-04-29T16:56:48.902Z,20.50
2023-04-29T16:59:19.117Z,17.30
2023-04-29T17:01:47.425Z,20.37
2023-04-29T17:04:16.996Z,18.00
2023-04-29T17:06:45.769Z,19.83
2023-04-29T17:09:15.684Z,17.63
2023-04-29T17:11:44.057Z,15.73
2023-04-29T17:14:12.233Z,18.77
2023-04-29T17:16:40.424Z,16.63
2023-04-29T17:19:09.076Z,15.73
2023-04-29T17:21:38.588Z,16.20
2023-04-29T17:24:07.028Z,17.43
2023-04-29T17:26:35.241Z,17.77
2023-04-29T17:29:03.655Z,15.77
2023-04-29T17:31:44.940Z,15.30
2023-04-29T17:34:18.789Z,13.20
2023-04-29T17:36:48.857Z,15.60
2023-04-29T17:39:17.124Z,15.50
2023-04-29T17:41:45.585Z,15.23
2023-04-29T17:44:14.757Z,17.63
2023-04-29T17:46:43.013Z,16.23
2023-04-29T17:49:11.400Z,16.00
2023-04-29T17:51:39.625Z,16.43
2023-04-29T17:54:10.300Z,16.57
2023-04-29T17:56:38.699Z,18.40
2023-04-29T17:59:08.034Z,16.07
2023-04-29T18:01:37.022Z,18.73
2023-04-29T18:04:05.992Z,18.63
2023-04-29T18:06:34.805Z,16.87
2023-04-29T18:09:03.056Z,16.20
2023-04-29T18:11:32.799Z,17.07
2023-04-29T18:14:01.117Z,15.53
2023-04-29T18:16:29.845Z,16.97
2023-04-29T18:18:58.022Z,15.50
2023-04-29T18:21:27.275Z,21.77
2023-04-29T18:23:55.467Z,15.53
2023-04-29T18:26:23.933Z,18.43
2023-04-29T18:28:53.449Z,17.60
2023-04-29T18:31:23.183Z,19.57
2023-04-29T18:33:51.404Z,19.80
2023-04-29T18:36:21.195Z,18.47
2023-04-29T18:38:49.370Z,20.77
2023-04-29T18:41:17.586Z,20.40
2023-04-29T18:43:45.766Z,22.03
2023-04-29T18:46:15.404Z,20.57
2023-04-29T18:48:43.598Z,20.93
2023-04-29T18:51:11.761Z,20.00
2023-04-29T18:53:39.958Z,20.50
2023-04-29T18:56:08.271Z,22.73
2023-04-29T18:58:36.533Z,20.10
2023-04-29T19:01:04.729Z,20.67
2023-04-29T19:03:34.245Z,20.77
2023-04-29T19:06:02.572Z,19.33
2023-04-29T19:08:30.796Z,19.67
2023-04-29T19:11:00.674Z,22.93
2023-04-29T19:13:29.296Z,18.73
2023-04-29T19:15:57.621Z,20.57
2023-04-29T19:18:25.818Z,24.30
2023-04-29T19:20:56.033Z,19.50
2023-04-29T19:23:24.620Z,25.63
2023-04-29T19:25:52.804Z,24.87
2023-04-29T19:28:20.979Z,22.23
2023-04-29T19:30:49.152Z,25.07
2023-04-29T19:33:17.407Z,26.67
2023-04-29T19:35:45.775Z,26.83
2023-04-29T19:38:15.284Z,25.77
2023-04-29T19:40:43.442Z,24.30
2023-04-29T19:43:13.228Z,30.03
2023-04-29T19:45:41.371Z,24.60
2023-04-29T19:48:09.606Z,22.77
2023-04-29T19:50:37.820Z,27.00
2023-04-29T19:53:05.991Z,26.77
2023-04-29T19:55:35.484Z,24.67
2023-04-29T19:58:03.656Z,27.70
2023-04-29T20:00:32.030Z,22.50
2023-04-29T20:03:00.392Z,26.57
2023-04-29T20:05:29.396Z,25.40
2023-04-29T20:07:57.816Z,23.70
2023-04-29T20:10:27.507Z,27.43
2023-04-29T20:12:59.210Z,27.27
2023-04-29T20:15:27.595Z,24.67
2023-04-29T20:17:55.943Z,26.90
2023-04-29T20:20:24.384Z,28.67
2023-04-29T20:22:52.537Z,27.87
2023-04-29T20:25:21.775Z,28.73
2023-04-29T20:27:49.960Z,31.07
2023-04-29T20:30:19.451Z,28.30
2023-04-29T20:32:48.297Z,31.93
2023-04-29T20:35:16.717Z,27.60
2023-04-29T20:37:45.906Z,26.93
2023-04-29T20:40:14.419Z,29.00
2023-04-29T20:42:42.661Z,30.20
2023-04-29T20:45:11.891Z,31.27
2023-04-29T20:47:41.528Z,30.73
2023-04-29T20:50:10.169Z,30.83
2023-04-29T20:52:38.363Z,32.30
2023-04-29T20:55:06.731Z,30.57
2023-04-29T20:57:34.896Z,28.33
2023-04-29T21:00:03.080Z,31.47
2023-04-29T21:02:31.373Z,36.33
2023-04-29T21:05:01.072Z,32.30
2023-04-29T21:07:29.309Z,36.37
2023-04-29T21:09:57.464Z,37.13
2023-04-29T21:12:25.709Z,30.37
2023-04-29T21:14:53.852Z,32.47
2023-04-29T21:17:22.014Z,31.47
2023-04-29T21:19:50.188Z,32.97
2023-04-29T21:22:19.744Z,32.00
2023-04-29T21:24:47.888Z,33.23
2023-04-29T21:27:16.070Z,34.27
2023-04-29T21:29:44.226Z,35.37
2023-04-29T21:32:12.374Z,32.27
2023-04-29T21:34:40.553Z,36.87
2023-04-29T21:37:08.782Z,36.47
2023-04-29T21:39:38.269Z,35.20
2023-04-29T21:42:06.430Z,32.87
2023-04-29T21:44:35.517Z,35.87
2023-04-29T21:47:04.498Z,31.77
2023-04-29T21:49:32.841Z,35.93
2023-04-29T21:52:01.628Z,29.63
2023-04-29T21:54:29.809Z,32.90
2023-04-29T21:56:59.410Z,38.03
2023-04-29T21:59:32.627Z,33.97
2023-04-29T22:02:00.828Z,31.27
2023-04-29T22:04:29.056Z,32.50
2023-04-29T22:06:57.457Z,31.70
2023-04-29T22:09:25.896Z,31.23
2023-04-29T22:11:54.065Z,33.77
2023-04-29T22:14:23.669Z,29.70
2023-04-29T22:16:51.960Z,32.63
2023-04-29T22:19:20.136Z,32.47
2023-04-29T22:21:48.299Z,31.47
2023-04-29T22:24:16.469Z,31.13
2023-04-29T22:26:44.613Z,32.70
2023-04-29T22:29:12.777Z,30.77
2023-04-29T22:31:42.313Z,31.00
2023-04-29T22:34:10.493Z,31.97
2023-04-29T22:36:39.900Z,30.80
2023-04-29T22:39:08.276Z,28.90
2023-04-29T22:41:36.672Z,29.87
2023-04-29T22:44:04.820Z,26.10
2023-04-29T22:46:33.215Z,30.07
2023-04-29T22:49:03.002Z,28.60
2023-04-29T22:51:32.043Z,29.23
2023-04-29T22:54:00.216Z,28.40
2023-04-29T22:56:28.720Z,33.47
2023-04-29T22:58:56.919Z,25.33
2023-04-29T23:01:25.159Z,28.43
2023-04-29T23:03:53.358Z,30.40
2023-04-29T23:06:22.944Z,30.70
2023-04-29T23:08:51.132Z,31.50
2023-04-29T23:11:19.360Z,28.30
2023-04-29T23:13:47.502Z,27.23
2023-04-29T23:16:15.966Z,26.57
2023-04-29T23:18:44.137Z,28.03
2023-04-29T23:21:12.313Z,28.50
2023-04-29T23:23:41.808Z,28.20
2023-04-29T23:26:10.239Z,32.60
2023-04-29T23:28:38.396Z,25.77
2023-04-29T23:31:06.639Z,27.23
2023-04-29T23:33:34.839Z,30.70
2023-04-29T23:36:02.992Z,25.60
2023-04-29T23:38:31.185Z,27.10
2023-04-29T23:41:00.807Z,27.57
2023-04-29T23:43:28.990Z,25.57
2023-04-29T23:45:57.171Z,26.47
2023-04-29T23:48:25.315Z,29.43
2023-04-29T23:50:53.493Z,30.77
2023-04-29T23:53:21.674Z,30.63
2023-04-29T23:55:50.462Z,29.37
2023-04-29T23:58:19.957Z,26.17
